Deadhorse, Alaska
Current Conditions -  °F | °C
As of 6:53 AM on Wednesday 26 Nov 2014 (Local Time) from PASC Reporting Station
Clear Clear  
Wind Chill: -26°   Ceiling: Unl
Heat Index: -12°   Visibility: 10mi
Dew Point: -16°   Wind: 6mph
Humidity: 82%   Direction: 100°E
Pressure: 30.62"   Gusts: NA
Location:  70.2°N, 148.46°W
Report Text: PASC 261553Z 10005KT 10SM CLR M24/M27 A3062 RMK AO2 SLP372 I1000 T12441267
Loading
Personal Weather Stations






























Interactive Weather Map New forecast layout! Learn more

10-Day Weather Forecast

Advertisements
Track Severe Weather on mobile